createdAt,value
2016-07-20T00:00:49.323Z,53.56
2016-07-20T00:01:49.305Z,53.34
2016-07-20T00:02:49.293Z,53.56
2016-07-20T00:03:49.283Z,53.92
2016-07-20T00:04:49.258Z,54.11
2016-07-20T00:05:49.242Z,54.4
2016-07-20T00:06:49.226Z,54.5
2016-07-20T00:07:49.209Z,54.5
2016-07-20T00:08:49.192Z,54.6
2016-07-20T00:09:49.178Z,54.98
2016-07-20T00:10:49.162Z,54.98
2016-07-20T00:11:49.143Z,55.08
2016-07-20T00:12:49.135Z,55.08
2016-07-20T00:13:49.111Z,55.27
2016-07-20T00:14:49.097Z,55.08
2016-07-20T00:15:49.081Z,56.04
2016-07-20T00:16:49.064Z,55.27
2016-07-20T00:17:49.048Z,56.11
2016-07-20T00:18:49.031Z,56.11
2016-07-20T00:19:49.015Z,55.73
2016-07-20T00:20:48.997Z,56.11
2016-07-20T00:21:48.981Z,56.11
2016-07-20T00:22:48.967Z,56.3
2016-07-20T00:23:48.947Z,56.4
2016-07-20T00:24:48.938Z,56.3
2016-07-20T00:25:48.917Z,56.49
2016-07-20T00:26:48.899Z,56.79
2016-07-20T00:27:48.884Z,56.69
2016-07-20T00:28:48.866Z,56.98
2016-07-20T00:29:48.850Z,56.69
2016-07-20T00:30:48.835Z,56.98
2016-07-20T00:31:48.822Z,56.98
2016-07-20T00:32:48.802Z,57.37
2016-07-20T00:33:48.786Z,57.17
2016-07-20T00:34:48.769Z,57.46
2016-07-20T00:35:48.753Z,57.75
2016-07-20T00:36:48.742Z,57.94
2016-07-20T00:37:48.719Z,57.85
2016-07-20T00:38:48.704Z,58.14
2016-07-20T00:39:48.685Z,57.85
2016-07-20T00:40:48.671Z,58.14
2016-07-20T00:41:48.652Z,58.4
2016-07-20T00:42:48.637Z,58.4
2016-07-20T00:43:48.618Z,58.2
2016-07-20T00:44:48.605Z,58.59
2016-07-20T00:45:48.587Z,58.49
2016-07-20T00:46:48.569Z,58.3
2016-07-20T00:47:48.554Z,58.49
2016-07-20T00:48:48.537Z,58.69
2016-07-20T00:49:48.518Z,58.97
2016-07-20T00:50:48.504Z,58.88
2016-07-20T00:51:49.178Z,59.17
2016-07-20T00:52:48.469Z,59.17
2016-07-20T00:53:48.462Z,59.07
2016-07-20T00:54:48.436Z,58.97
2016-07-20T00:55:48.418Z,59.36
2016-07-20T00:56:48.400Z,59.27
2016-07-20T00:57:48.386Z,59.36
2016-07-20T00:58:48.368Z,60.13
2016-07-20T00:59:48.353Z,59.94
2016-07-20T01:00:48.335Z,59.84
2016-07-20T01:01:48.317Z,60.32
2016-07-20T01:02:48.301Z,60.03
2016-07-20T01:03:48.284Z,60.13
2016-07-20T01:04:48.266Z,60.03
2016-07-20T01:05:48.251Z,59.65
2016-07-20T01:06:48.233Z,59.94
2016-07-20T01:07:48.217Z,60.03
2016-07-20T01:08:48.200Z,60.61
2016-07-20T01:09:48.182Z,60.42
2016-07-20T01:10:48.165Z,60.42
2016-07-20T01:11:48.150Z,60.52
2016-07-20T01:12:48.132Z,60.42
2016-07-20T01:13:48.117Z,60.32
2016-07-20T01:14:48.099Z,60.61
2016-07-20T01:15:48.081Z,61
2016-07-20T01:16:48.065Z,60.71
2016-07-20T01:17:48.048Z,60.77
2016-07-20T01:18:48.029Z,60.68
2016-07-20T01:19:48.015Z,60.87
2016-07-20T01:20:47.996Z,60.8
2016-07-20T01:21:47.983Z,61.35
2016-07-20T01:22:47.962Z,61.16
2016-07-20T01:23:47.945Z,61.07
2016-07-20T01:24:47.928Z,61.45
2016-07-20T01:25:47.909Z,61.65
2016-07-20T01:26:47.895Z,61.55
2016-07-20T01:27:47.876Z,61.45
2016-07-20T01:28:47.862Z,61.35
2016-07-20T01:29:47.842Z,61.65
2016-07-20T01:30:47.825Z,61.65
2016-07-20T01:31:47.811Z,62.03
2016-07-20T01:32:47.791Z,62.22
2016-07-20T01:33:47.777Z,61.93
2016-07-20T01:34:47.758Z,61.83
2016-07-20T01:35:47.741Z,62.22
2016-07-20T01:36:47.724Z,62.12
2016-07-20T01:37:47.707Z,62.6
2016-07-20T01:38:47.690Z,62.6
2016-07-20T01:39:47.672Z,62.6
2016-07-20T01:40:47.654Z,63.09
2016-07-20T01:41:47.638Z,62.99
2016-07-20T01:42:47.620Z,62.6
2016-07-20T01:43:47.604Z,62.6
2016-07-20T01:44:47.585Z,62.7
2016-07-20T01:45:47.570Z,62.77
2016-07-20T01:46:47.553Z,63.25
2016-07-20T01:47:47.534Z,63.54
2016-07-20T01:48:47.517Z,63.34
2016-07-20T01:49:47.500Z,63.25
2016-07-20T01:50:47.483Z,63.64
2016-07-20T01:51:47.466Z,63.15
2016-07-20T01:52:47.449Z,63.73
2016-07-20T01:53:48.121Z,63.25
2016-07-20T01:54:47.416Z,63.64
2016-07-20T01:55:47.397Z,64.12
2016-07-20T01:56:47.377Z,63.92
2016-07-20T01:57:47.362Z,63.34
2016-07-20T01:58:47.344Z,63.64
2016-07-20T01:59:47.325Z,63.73
2016-07-20T02:00:47.310Z,63.54
2016-07-20T02:01:47.292Z,63.82
2016-07-20T02:02:47.274Z,63.73
2016-07-20T02:03:47.255Z,63.73
2016-07-20T02:04:47.238Z,64.21
2016-07-20T02:05:47.222Z,64.12
2016-07-20T02:06:47.204Z,64.02
2016-07-20T02:07:47.189Z,64.02
2016-07-20T02:08:47.170Z,63.92
2016-07-20T02:09:47.151Z,63.92
2016-07-20T02:10:47.142Z,64.02
2016-07-20T02:11:47.116Z,64.5
2016-07-20T02:12:47.100Z,64.4
2016-07-20T02:13:47.082Z,64.5
2016-07-20T02:14:47.063Z,64.47
2016-07-20T02:15:47.049Z,64.28
2016-07-20T02:16:47.028Z,64.47
2016-07-20T02:17:47.011Z,64.56
2016-07-20T02:18:46.993Z,65.24
2016-07-20T02:19:46.977Z,65.43
2016-07-20T02:20:46.960Z,65.14
2016-07-20T02:21:46.941Z,64.95
2016-07-20T02:22:46.925Z,65.24
2016-07-20T02:23:46.907Z,64.95
2016-07-20T02:24:46.887Z,65.14
2016-07-20T02:25:46.872Z,65.24
2016-07-20T02:26:46.853Z,65.14
2016-07-20T02:27:46.834Z,65.24
2016-07-20T02:28:46.819Z,65.53
2016-07-20T02:29:46.799Z,65.53
2016-07-20T02:30:46.784Z,65.72
2016-07-20T02:31:46.764Z,65.24
2016-07-20T02:32:46.747Z,65.53
2016-07-20T02:33:46.730Z,65.81
2016-07-20T02:34:46.711Z,65.63
2016-07-20T02:35:46.695Z,66.01
2016-07-20T02:36:46.683Z,65.81
2016-07-20T02:37:46.659Z,65.91
2016-07-20T02:38:46.642Z,66.2
2016-07-20T02:39:46.623Z,66.1
2016-07-20T02:40:46.606Z,66.2
2016-07-20T02:41:46.589Z,65.91
2016-07-20T02:42:46.569Z,66.1
2016-07-20T02:43:46.554Z,66.1
2016-07-20T02:44:46.534Z,66.49
2016-07-20T02:45:46.516Z,66.2
2016-07-20T02:46:46.500Z,66.39
2016-07-20T02:47:46.481Z,66.1
2016-07-20T02:48:46.464Z,66.2
2016-07-20T02:49:46.445Z,66.58
2016-07-20T02:50:46.427Z,66.68
2016-07-20T02:51:46.412Z,66.49
2016-07-20T02:52:46.393Z,66.97
2016-07-20T02:53:46.375Z,66.88
2016-07-20T02:54:46.357Z,66.88
2016-07-20T02:55:46.340Z,66.68
2016-07-20T02:56:46.321Z,67.07
2016-07-20T02:57:46.307Z,66.97
2016-07-20T02:58:46.286Z,66.88
2016-07-20T02:59:46.267Z,67.65
2016-07-20T03:00:46.250Z,67.32
2016-07-20T03:01:46.232Z,67.45
2016-07-20T03:02:46.213Z,67.07
2016-07-20T03:03:46.197Z,67.26
2016-07-20T03:04:46.179Z,67.16
2016-07-20T03:05:46.161Z,67.16
2016-07-20T03:06:46.143Z,67.03
2016-07-20T03:07:46.123Z,67.16
2016-07-20T03:08:46.107Z,67.07
2016-07-20T03:09:46.090Z,67.55
2016-07-20T03:10:46.073Z,67.61
2016-07-20T03:11:46.052Z,67.45
2016-07-20T03:12:46.033Z,67.32
2016-07-20T03:13:46.018Z,67.42
2016-07-20T03:14:45.998Z,67.55
2016-07-20T03:15:45.981Z,67.42
2016-07-20T03:16:45.963Z,67.42
2016-07-20T03:17:45.944Z,67.71
2016-07-20T03:18:45.926Z,67.42
2016-07-20T03:19:45.910Z,67.9
2016-07-20T03:20:45.889Z,67.9
2016-07-20T03:21:45.873Z,67.8
2016-07-20T03:22:45.857Z,67.8
2016-07-20T03:23:45.837Z,67.71
2016-07-20T03:24:45.819Z,67.71
2016-07-20T03:25:45.802Z,67.71
2016-07-20T03:26:45.781Z,67.8
2016-07-20T03:27:45.763Z,67.9
2016-07-20T03:28:45.749Z,67.9
2016-07-20T03:29:45.729Z,68.09
2016-07-20T03:30:45.711Z,67.99
2016-07-20T03:31:45.694Z,67.99
2016-07-20T03:32:45.677Z,67.8
2016-07-20T03:33:45.656Z,67.9
2016-07-20T03:34:45.639Z,67.61
2016-07-20T03:35:45.620Z,67.71
2016-07-20T03:36:45.602Z,67.9
2016-07-20T03:37:45.590Z,67.71
2016-07-20T03:38:45.567Z,67.61
2016-07-20T03:39:45.549Z,67.71
2016-07-20T03:40:45.532Z,67.9
2016-07-20T03:41:45.512Z,67.99
2016-07-20T03:42:45.494Z,67.71
2016-07-20T03:43:45.478Z,67.99
2016-07-20T03:44:45.457Z,67.8
2016-07-20T03:45:45.442Z,67.71
2016-07-20T03:46:45.422Z,67.99
2016-07-20T03:47:45.404Z,67.9
2016-07-20T03:48:45.387Z,67.61
2016-07-20T03:49:45.369Z,67.8
2016-07-20T03:50:45.352Z,67.8
2016-07-20T03:51:45.332Z,67.71
2016-07-20T03:52:45.313Z,67.61
2016-07-20T03:53:45.297Z,67.42
2016-07-20T03:54:45.279Z,67.8
2016-07-20T03:55:45.260Z,67.32
2016-07-20T03:56:45.244Z,67.42
2016-07-20T03:57:45.916Z,67.93
2016-07-20T03:58:45.206Z,67.99
2016-07-20T03:59:45.190Z,68.09
2016-07-20T04:00:45.170Z,67.35
2016-07-20T04:01:45.154Z,67.99
2016-07-20T04:02:45.140Z,67.55
2016-07-20T04:03:45.116Z,67.83
2016-07-20T04:04:45.099Z,67.8
2016-07-20T04:05:45.079Z,67.65
2016-07-20T04:06:45.063Z,67.55
2016-07-20T04:07:45.043Z,67.74
2016-07-20T04:08:45.028Z,68.03
2016-07-20T04:09:45.013Z,67.65
2016-07-20T04:10:44.990Z,67.65
2016-07-20T04:11:44.975Z,67.45
2016-07-20T04:12:44.956Z,68.13
2016-07-20T04:13:44.937Z,67.93
2016-07-20T04:14:44.920Z,67.71
2016-07-20T04:15:44.902Z,67.93
2016-07-20T04:16:44.886Z,67.93
2016-07-20T04:17:44.868Z,67.83
2016-07-20T04:18:44.850Z,67.74
2016-07-20T04:19:44.831Z,67.74
2016-07-20T04:20:44.814Z,67.83
2016-07-20T04:21:44.797Z,68.03
2016-07-20T04:22:44.779Z,67.93
2016-07-20T04:23:44.763Z,67.65
2016-07-20T04:24:44.744Z,67.83
2016-07-20T04:25:44.724Z,67.93
2016-07-20T04:26:44.709Z,67.93
2016-07-20T04:27:44.690Z,67.93
2016-07-20T04:28:44.673Z,67.93
2016-07-20T04:29:44.656Z,67.93
2016-07-20T04:30:44.637Z,68.13
2016-07-20T04:31:44.620Z,67.74
2016-07-20T04:32:44.601Z,67.35
2016-07-20T04:33:44.585Z,67.26
2016-07-20T04:34:44.568Z,67.45
2016-07-20T04:35:44.549Z,67.35
2016-07-20T04:36:44.530Z,67.45
2016-07-20T04:37:44.513Z,67.45
2016-07-20T04:38:44.497Z,67.55
2016-07-20T04:39:44.479Z,67.55
2016-07-20T04:40:44.461Z,67.35
2016-07-20T04:41:44.448Z,67.35
2016-07-20T04:42:44.424Z,67.35
2016-07-20T04:43:44.408Z,67.83
2016-07-20T04:44:44.390Z,67.55
2016-07-20T04:45:44.372Z,67.16
2016-07-20T04:46:44.356Z,67.26
2016-07-20T04:47:44.337Z,67.26
2016-07-20T04:48:44.321Z,67.35
2016-07-20T04:49:44.302Z,66.88
2016-07-20T04:50:44.286Z,66.78
2016-07-20T04:51:44.430Z,66.88
2016-07-20T04:52:44.252Z,66.81
2016-07-20T04:53:44.231Z,67
2016-07-20T04:54:44.295Z,66.42
2016-07-20T04:55:44.199Z,66.71
2016-07-20T04:56:44.179Z,66.14
2016-07-20T04:57:44.164Z,66.42
2016-07-20T04:58:44.147Z,66.14
2016-07-20T04:59:44.206Z,66.33
2016-07-20T05:00:44.115Z,66.52
2016-07-20T05:01:44.099Z,65.85
2016-07-20T05:02:44.079Z,65.75
2016-07-20T05:03:44.061Z,65.56
2016-07-20T05:04:44.198Z,65.66
2016-07-20T05:05:44.027Z,65.56
2016-07-20T05:06:44.009Z,65.46
2016-07-20T05:07:43.993Z,65.37
2016-07-20T05:08:44.665Z,65.3
2016-07-20T05:09:43.959Z,65.3
2016-07-20T05:10:43.941Z,65.2
2016-07-20T05:11:43.922Z,65.2
2016-07-20T05:12:43.907Z,64.92
2016-07-20T05:13:43.888Z,64.34
2016-07-20T05:14:43.874Z,64.63
2016-07-20T05:15:43.856Z,64.34
2016-07-20T05:16:43.838Z,64.43
2016-07-20T05:17:43.823Z,63.85
2016-07-20T05:18:43.823Z,64.05
2016-07-20T05:19:43.787Z,63.98
2016-07-20T05:20:43.771Z,63.57
2016-07-20T05:21:43.754Z,64.08
2016-07-20T05:22:43.745Z,63.98
2016-07-20T05:23:43.728Z,63.7
2016-07-20T05:24:43.704Z,63.79
2016-07-20T05:25:43.689Z,63.6
2016-07-20T05:26:43.671Z,63.21
2016-07-20T05:27:43.656Z,63.5
2016-07-20T05:28:43.638Z,62.83
2016-07-20T05:29:43.625Z,63.06
2016-07-20T05:30:43.606Z,63.15
2016-07-20T05:31:43.605Z,62.96
2016-07-20T05:32:43.574Z,62.66
2016-07-20T05:33:43.626Z,62.18
2016-07-20T05:34:43.541Z,62.18
2016-07-20T05:35:43.524Z,61.8
2016-07-20T05:36:43.515Z,61.41
2016-07-20T05:37:43.543Z,61.25
2016-07-20T05:38:43.478Z,60.96
2016-07-20T05:39:43.462Z,60.77
2016-07-20T05:40:43.491Z,61.16
2016-07-20T05:41:43.428Z,60.58
2016-07-20T05:42:43.415Z,60.71
2016-07-20T05:43:43.401Z,60.03
2016-07-20T05:44:43.392Z,60.03
2016-07-20T05:45:43.418Z,59.25
2016-07-20T05:46:43.353Z,59.16
2016-07-20T05:47:43.340Z,58.51
2016-07-20T05:48:43.536Z,58.51
2016-07-20T05:49:44.153Z,58.06
2016-07-20T05:50:43.295Z,57.19
2016-07-20T05:51:43.280Z,56.9
2016-07-20T05:52:43.266Z,56.83
2016-07-20T05:53:43.251Z,56.35
2016-07-20T05:54:43.235Z,55.67
2016-07-20T05:55:43.259Z,55.41
2016-07-20T05:56:43.267Z,54.53
2016-07-20T05:57:43.196Z,54.63
2016-07-20T05:58:43.872Z,54.47
2016-07-20T05:59:43.165Z,53.5
2016-07-20T06:00:43.153Z,53.31
2016-07-20T06:01:43.140Z,52.85
2016-07-20T06:02:43.125Z,52.95
2016-07-20T06:03:43.270Z,51.98
2016-07-20T06:04:43.167Z,51.62
2016-07-20T06:05:43.084Z,51.42
2016-07-20T06:06:43.072Z,51.23
2016-07-20T06:07:43.057Z,50.45
2016-07-20T06:08:43.294Z,50.74
2016-07-20T06:09:43.035Z,50.38
2016-07-20T06:10:43.020Z,49.41
2016-07-20T06:11:43.014Z,49.22
2016-07-20T06:12:42.994Z,49.41
2016-07-20T06:13:42.983Z,49.15
2016-07-20T06:14:42.968Z,48.47
2016-07-20T06:15:42.959Z,48.47
2016-07-20T06:16:42.946Z,47.89
2016-07-20T06:17:42.933Z,47.2
2016-07-20T06:18:42.923Z,46.65
2016-07-20T06:19:42.910Z,46.36
2016-07-20T06:20:42.903Z,45.78
2016-07-20T06:21:42.888Z,45.39
2016-07-20T06:22:42.882Z,44.9
2016-07-20T06:23:42.865Z,44.15
2016-07-20T06:24:42.856Z,43.66
2016-07-20T06:25:42.848Z,44.15
2016-07-20T06:26:42.832Z,43.49
2016-07-20T06:27:42.824Z,42.52
2016-07-20T06:28:42.811Z,42.33
2016-07-20T06:29:42.801Z,42.13
2016-07-20T06:30:42.847Z,41.64
2016-07-20T06:31:42.781Z,41.28
2016-07-20T06:32:42.793Z,41.28
2016-07-20T06:33:42.762Z,40.5
2016-07-20T06:34:42.752Z,39.92
2016-07-20T06:35:42.743Z,40.03
2016-07-20T06:36:42.859Z,39.36
2016-07-20T06:37:42.727Z,39.16
2016-07-20T06:38:42.727Z,39.06
2016-07-20T06:39:42.703Z,38.57
2016-07-20T06:40:42.698Z,38.6
2016-07-20T06:41:42.686Z,38.01
2016-07-20T06:42:43.393Z,37.84
2016-07-20T06:43:42.765Z,37.45
2016-07-20T06:44:42.660Z,37.16
2016-07-20T06:45:42.707Z,36.88
2016-07-20T06:46:42.651Z,36.69
2016-07-20T06:47:42.636Z,36.3
2016-07-20T06:48:42.629Z,36.49
2016-07-20T06:49:42.620Z,35.81
2016-07-20T06:50:43.442Z,35.83
2016-07-20T06:51:42.731Z,35.44
2016-07-20T06:52:42.885Z,35.15
2016-07-20T06:53:42.595Z,35.25
2016-07-20T06:54:42.653Z,34.95
2016-07-20T06:55:42.944Z,34.97
2016-07-20T06:56:42.569Z,34.78
2016-07-20T06:57:42.600Z,34.29
2016-07-20T06:58:42.555Z,34.01
2016-07-20T06:59:42.546Z,34.21
2016-07-20T07:00:42.542Z,33.82
2016-07-20T07:01:42.532Z,33.62
2016-07-20T07:02:42.559Z,33.53
2016-07-20T07:03:42.594Z,33.34
2016-07-20T07:04:42.775Z,33.06
2016-07-20T07:05:42.513Z,32.86
2016-07-20T07:06:42.520Z,32.47
2016-07-20T07:07:42.494Z,32.29
2016-07-20T07:08:42.493Z,32.29
2016-07-20T07:09:42.575Z,32.29
2016-07-20T07:10:42.474Z,31.8
2016-07-20T07:11:42.521Z,31.6
2016-07-20T07:12:42.469Z,31.23
2016-07-20T07:13:42.626Z,31.13
2016-07-20T07:14:42.635Z,30.94
2016-07-20T07:15:43.441Z,31.13
2016-07-20T07:16:43.282Z,31.04
2016-07-20T07:17:43.038Z,30.94
2016-07-20T07:18:42.538Z,30.94
2016-07-20T07:19:43.230Z,30.18
2016-07-20T07:20:42.689Z,30.37
2016-07-20T07:21:42.416Z,29.88
2016-07-20T07:22:42.408Z,29.79
2016-07-20T07:23:42.489Z,30.27
2016-07-20T07:24:42.409Z,29.98
2016-07-20T07:25:42.388Z,29.79
2016-07-20T07:26:42.665Z,29.8
2016-07-20T07:27:42.379Z,29.7
2016-07-20T07:28:42.394Z,28.82
2016-07-20T07:29:42.370Z,28.93
2016-07-20T07:30:42.385Z,29.03
2016-07-20T07:31:42.361Z,28.74
2016-07-20T07:32:42.355Z,28.64
2016-07-20T07:33:42.601Z,28.44
2016-07-20T07:34:42.346Z,28.34
2016-07-20T07:35:42.346Z,28.25
2016-07-20T07:36:42.337Z,27.76
2016-07-20T07:37:42.366Z,28.05
2016-07-20T07:38:42.325Z,27.76
2016-07-20T07:39:43.022Z,27.48
2016-07-20T07:40:43.315Z,27.58
2016-07-20T07:41:42.714Z,27.67
2016-07-20T07:42:42.317Z,27.38
2016-07-20T07:43:42.466Z,27.19
2016-07-20T07:44:42.324Z,27.2
2016-07-20T07:45:42.292Z,27
2016-07-20T07:46:42.316Z,26.81
2016-07-20T07:47:42.288Z,26.32
2016-07-20T07:48:42.282Z,26.51
2016-07-20T07:49:42.277Z,26.04
2016-07-20T07:50:42.274Z,25.94
2016-07-20T07:51:42.268Z,25.76
2016-07-20T07:52:42.263Z,25.74
2016-07-20T07:53:42.272Z,25.46
2016-07-20T07:54:42.263Z,25.46
2016-07-20T07:55:42.255Z,24.69
2016-07-20T07:56:42.257Z,24.49
2016-07-20T07:57:42.246Z,24.7
2016-07-20T07:58:42.244Z,24.8
2016-07-20T07:59:42.240Z,24.31
2016-07-20T08:00:42.246Z,24.51
2016-07-20T08:01:42.235Z,24.03
2016-07-20T08:02:42.246Z,23.54
2016-07-20T08:03:42.405Z,23.54
2016-07-20T08:04:42.276Z,23.74
2016-07-20T08:05:42.221Z,23.83
2016-07-20T08:06:42.220Z,23.45
2016-07-20T08:07:42.219Z,23.55
2016-07-20T08:08:42.382Z,23.45
2016-07-20T08:09:42.306Z,23.36
2016-07-20T08:10:42.321Z,23.07
2016-07-20T08:11:42.219Z,22.58
2016-07-20T08:12:42.205Z,22.39
2016-07-20T08:13:42.210Z,22.3
2016-07-20T08:14:42.265Z,22.1
2016-07-20T08:15:42.230Z,22.2
2016-07-20T08:16:42.235Z,22.3
2016-07-20T08:17:42.617Z,22.1
2016-07-20T08:18:42.349Z,22.1
2016-07-20T08:19:42.193Z,22.01
2016-07-20T08:20:42.940Z,21.42
2016-07-20T08:21:42.189Z,21.42
2016-07-20T08:22:42.186Z,21.22
2016-07-20T08:23:42.188Z,21.12
2016-07-20T08:24:42.781Z,21.22
2016-07-20T08:25:42.315Z,20.64
2016-07-20T08:26:42.296Z,20.73
2016-07-20T08:27:42.544Z,21.12
2016-07-20T08:28:42.198Z,20.83
2016-07-20T08:29:42.179Z,21.12
2016-07-20T08:30:42.192Z,20.82
2016-07-20T08:31:42.372Z,20.72
2016-07-20T08:32:42.173Z,20.92
2016-07-20T08:33:42.403Z,20.82
2016-07-20T08:34:42.177Z,20.72
2016-07-20T08:35:42.722Z,20.72
2016-07-20T08:36:42.175Z,20.44
2016-07-20T08:37:42.855Z,20.54
2016-07-20T08:38:43.069Z,20.44
2016-07-20T08:39:42.189Z,20.25
2016-07-20T08:40:42.343Z,20.25
2016-07-20T08:41:42.660Z,19.96
2016-07-20T08:42:42.993Z,20.06
2016-07-20T08:43:43.780Z,19.96
2016-07-20T08:44:42.534Z,19.77
2016-07-20T08:45:42.396Z,19.78
2016-07-20T08:46:42.169Z,19.48
2016-07-20T08:47:42.187Z,18.9
2016-07-20T08:48:42.231Z,18.9
2016-07-20T08:49:42.416Z,18.9
2016-07-20T08:50:42.811Z,19
2016-07-20T08:51:42.257Z,19.1
2016-07-20T08:52:43.293Z,18.9
2016-07-20T08:53:42.158Z,18.81
2016-07-20T08:54:42.428Z,18.91
2016-07-20T08:55:42.412Z,18.71
2016-07-20T08:56:42.187Z,18.52
2016-07-20T08:57:42.198Z,18.23
2016-07-20T08:58:42.724Z,18.33
2016-07-20T08:59:42.355Z,18.23
2016-07-20T09:00:42.216Z,18.43
2016-07-20T09:01:42.390Z,18.23
2016-07-20T09:02:42.464Z,18.04
2016-07-20T09:03:42.164Z,18.13
2016-07-20T09:04:42.167Z,18.23
2016-07-20T09:05:42.167Z,18.23
2016-07-20T09:06:42.455Z,18.23
2016-07-20T09:07:42.170Z,17.55
2016-07-20T09:08:42.179Z,17.75
2016-07-20T09:09:42.171Z,17.85
2016-07-20T09:10:42.216Z,17.35
2016-07-20T09:11:42.172Z,17.45
2016-07-20T09:12:42.176Z,17.75
2016-07-20T09:13:42.552Z,17.45
2016-07-20T09:14:42.567Z,17.75
2016-07-20T09:15:42.179Z,17.45
2016-07-20T09:16:42.406Z,17.55
2016-07-20T09:17:42.180Z,17.65
2016-07-20T09:18:42.203Z,17.55
2016-07-20T09:19:42.223Z,17.85
2016-07-20T09:20:42.182Z,17.45
2016-07-20T09:21:42.191Z,17.65
2016-07-20T09:22:42.400Z,17.36
2016-07-20T09:23:42.984Z,17.25
2016-07-20T09:24:42.630Z,17.46
2016-07-20T09:25:42.702Z,17.45
2016-07-20T09:26:42.352Z,17.25
2016-07-20T09:27:42.190Z,17.26
2016-07-20T09:28:42.332Z,16.67
2016-07-20T09:29:42.280Z,16.77
2016-07-20T09:30:42.609Z,16.68
2016-07-20T09:31:42.919Z,16.78
2016-07-20T09:32:42.921Z,16.88
2016-07-20T09:33:42.860Z,16.38
2016-07-20T09:34:42.527Z,16.78
2016-07-20T09:35:43.565Z,16.28
2016-07-20T09:36:42.989Z,16.48
2016-07-20T09:37:42.856Z,16.19
2016-07-20T09:38:43.085Z,16.49
2016-07-20T09:39:43.985Z,16.29
2016-07-20T09:40:42.212Z,16.29
2016-07-20T09:41:42.214Z,16.1
2016-07-20T09:42:42.240Z,16.39
2016-07-20T09:43:42.215Z,16
2016-07-20T09:44:42.220Z,16.09
2016-07-20T09:45:42.242Z,15.7
2016-07-20T09:46:42.661Z,15.61
2016-07-20T09:47:42.416Z,15.41
2016-07-20T09:48:42.228Z,15.22
2016-07-20T09:49:42.933Z,15.32
2016-07-20T09:50:42.233Z,15.22
2016-07-20T09:51:42.234Z,15.52
2016-07-20T09:52:42.602Z,15.42
2016-07-20T09:53:42.479Z,15.12
2016-07-20T09:54:42.243Z,15.23
2016-07-20T09:55:42.248Z,14.83
2016-07-20T09:56:42.305Z,14.53
2016-07-20T09:57:42.249Z,14.54
2016-07-20T09:58:42.303Z,14.34
2016-07-20T09:59:42.257Z,13.85
2016-07-20T10:00:42.346Z,14.15
2016-07-20T10:01:42.379Z,13.56
2016-07-20T10:02:42.884Z,13.57
2016-07-20T10:03:42.575Z,13.27
2016-07-20T10:04:42.702Z,13.47
2016-07-20T10:05:42.475Z,13.07
2016-07-20T10:06:43.028Z,12.79
2016-07-20T10:07:43.054Z,12.88
2016-07-20T10:08:42.286Z,12.79
2016-07-20T10:09:42.424Z,12.78
2016-07-20T10:10:42.314Z,13.07
2016-07-20T10:11:42.481Z,12.69
2016-07-20T10:12:42.335Z,12.49
2016-07-20T10:13:42.877Z,12.49
2016-07-20T10:14:42.608Z,12.69
2016-07-20T10:15:42.988Z,12.09
2016-07-20T10:16:42.311Z,12.1
2016-07-20T10:17:42.322Z,12.1
2016-07-20T10:18:42.318Z,11.6
2016-07-20T10:19:43.075Z,11.8
2016-07-20T10:20:42.344Z,12
2016-07-20T10:21:42.330Z,11.7
2016-07-20T10:22:42.453Z,11.71
2016-07-20T10:23:42.472Z,11.41
2016-07-20T10:24:42.360Z,11.61
2016-07-20T10:25:42.344Z,11.51
2016-07-20T10:26:42.765Z,11.41
2016-07-20T10:27:42.491Z,11.51
2016-07-20T10:28:42.895Z,11.51
2016-07-20T10:29:43.070Z,11.41
2016-07-20T10:30:42.592Z,11.61
2016-07-20T10:31:42.395Z,11.31
2016-07-20T10:32:42.370Z,11.61
2016-07-20T10:33:42.559Z,11.21
2016-07-20T10:34:42.376Z,11.3
2016-07-20T10:35:42.378Z,11.21
2016-07-20T10:36:43.186Z,11.6
2016-07-20T10:37:42.631Z,11.5
2016-07-20T10:38:42.929Z,11.99
2016-07-20T10:39:42.390Z,12.08
2016-07-20T10:40:42.553Z,11.99
2016-07-20T10:41:42.397Z,11.99
2016-07-20T10:42:42.452Z,11.98
2016-07-20T10:43:42.547Z,11.89
2016-07-20T10:44:42.406Z,11.69
2016-07-20T10:45:42.638Z,11.3
2016-07-20T10:46:42.407Z,11.2
2016-07-20T10:47:42.409Z,11.5
2016-07-20T10:48:42.554Z,11.51
2016-07-20T10:49:42.934Z,11.21
2016-07-20T10:50:42.664Z,11.3
2016-07-20T10:51:42.466Z,11.31
2016-07-20T10:52:42.420Z,11.01
2016-07-20T10:53:42.483Z,10.91
2016-07-20T10:54:42.882Z,11.02
2016-07-20T10:55:42.533Z,10.52
2016-07-20T10:56:42.766Z,10.42
2016-07-20T10:57:42.436Z,10.23
2016-07-20T10:58:42.453Z,9.94
2016-07-20T10:59:42.449Z,9.94
2016-07-20T11:00:42.450Z,10.04
2016-07-20T11:01:42.452Z,9.84
2016-07-20T11:02:42.455Z,9.94
2016-07-20T11:03:42.459Z,9.83
2016-07-20T11:04:43.170Z,9.94
2016-07-20T11:05:42.486Z,9.74
2016-07-20T11:06:42.546Z,9.94
2016-07-20T11:07:42.986Z,10.03
2016-07-20T11:08:42.536Z,9.84
2016-07-20T11:09:42.487Z,9.44
2016-07-20T11:10:43.266Z,9.64
2016-07-20T11:11:42.649Z,9.24
2016-07-20T11:12:42.499Z,9.34
2016-07-20T11:13:42.750Z,9.15
2016-07-20T11:14:42.507Z,9.05
2016-07-20T11:15:43.023Z,9.25
2016-07-20T11:16:42.885Z,9.16
2016-07-20T11:17:43.707Z,9.35
2016-07-20T11:18:43.297Z,8.96
2016-07-20T11:19:42.910Z,8.66
2016-07-20T11:20:43.318Z,8.76
2016-07-20T11:21:43.297Z,8.76
2016-07-20T11:22:42.549Z,8.86
2016-07-20T11:23:42.755Z,8.66
2016-07-20T11:24:43.453Z,8.56
2016-07-20T11:25:43.095Z,8.66
2016-07-20T11:26:42.617Z,8.46
2016-07-20T11:27:42.740Z,8.36
2016-07-20T11:28:42.599Z,8.36
2016-07-20T11:29:43.156Z,8.26
2016-07-20T11:30:42.588Z,8.76
2016-07-20T11:31:42.753Z,8.66
2016-07-20T11:32:42.598Z,8.86
2016-07-20T11:33:42.691Z,8.56
2016-07-20T11:34:43.368Z,8.15
2016-07-20T11:35:43.210Z,8.26
2016-07-20T11:36:43.358Z,8.25
2016-07-20T11:37:43.370Z,8.15
2016-07-20T11:38:43.146Z,8.06
2016-07-20T11:39:43.198Z,7.97
2016-07-20T11:40:42.984Z,7.97
2016-07-20T11:41:43.174Z,7.76
2016-07-20T11:42:42.986Z,7.67
2016-07-20T11:43:42.931Z,7.97
2016-07-20T11:44:42.815Z,8.36
2016-07-20T11:45:43.364Z,8.26
2016-07-20T11:46:42.888Z,8.45
2016-07-20T11:47:42.797Z,8.85
2016-07-20T11:48:43.327Z,8.65
2016-07-20T11:49:44.411Z,8.95
2016-07-20T11:50:43.182Z,8.75
2016-07-20T11:51:42.851Z,8.55
2016-07-20T11:52:43.200Z,8.55
2016-07-20T11:53:43.468Z,8.45
2016-07-20T11:54:43.008Z,8.56
2016-07-20T11:55:43.181Z,8.45
2016-07-20T11:56:43.063Z,8.26
2016-07-20T11:57:43.607Z,8.36
2016-07-20T11:58:42.963Z,8.45
2016-07-20T11:59:42.944Z,8.16
2016-07-20T12:00:43.064Z,8.36
2016-07-20T12:01:42.848Z,8.47
2016-07-20T12:02:43.445Z,8.17
2016-07-20T12:03:42.925Z,7.97
2016-07-20T12:04:42.949Z,7.87
2016-07-20T12:05:42.892Z,7.87
2016-07-20T12:06:42.774Z,8.17
2016-07-20T12:07:43.472Z,8.17
2016-07-20T12:08:42.886Z,8.17
2016-07-20T12:09:42.790Z,8.26
2016-07-20T12:10:42.799Z,8.17
2016-07-20T12:11:42.809Z,8.26
2016-07-20T12:12:42.819Z,8.27
2016-07-20T12:13:42.813Z,8.06
2016-07-20T12:14:42.820Z,8.07
2016-07-20T12:15:42.942Z,7.67
2016-07-20T12:16:43.094Z,7.87
2016-07-20T12:17:43.115Z,7.78
2016-07-20T12:18:42.916Z,7.78
2016-07-20T12:19:42.964Z,7.67
2016-07-20T12:20:42.925Z,7.67
2016-07-20T12:21:42.863Z,7.78
2016-07-20T12:22:43.600Z,7.38
2016-07-20T12:23:42.952Z,7.38
2016-07-20T12:24:43.320Z,7.08
2016-07-20T12:25:42.886Z,6.78
2016-07-20T12:26:43.025Z,6.98
2016-07-20T12:27:43.725Z,6.78
2016-07-20T12:28:42.902Z,7.08
2016-07-20T12:29:43.225Z,7.08
2016-07-20T12:30:43.226Z,7.28
2016-07-20T12:31:43.121Z,7.18
2016-07-20T12:32:43.320Z,7.57
2016-07-20T12:33:42.936Z,7.27
2016-07-20T12:34:43.704Z,7.37
2016-07-20T12:35:43.109Z,6.98
2016-07-20T12:36:43.282Z,7.08
2016-07-20T12:37:43.487Z,7.08
2016-07-20T12:38:43.324Z,7.08
2016-07-20T12:39:43.271Z,6.98
2016-07-20T12:40:43.137Z,7.28
2016-07-20T12:41:42.981Z,7.28
2016-07-20T12:42:43.142Z,7.28
2016-07-20T12:43:43.448Z,7.28
2016-07-20T12:44:43.481Z,7.48
2016-07-20T12:45:43.009Z,7.39
2016-07-20T12:46:43.009Z,7.18
2016-07-20T12:47:43.106Z,7.08
2016-07-20T12:48:43.075Z,7.09
2016-07-20T12:49:43.030Z,7.39
2016-07-20T12:50:43.205Z,7.48
2016-07-20T12:51:43.043Z,7.48
2016-07-20T12:52:43.047Z,7.28
2016-07-20T12:53:43.056Z,7.39
2016-07-20T12:54:43.114Z,7.68
2016-07-20T12:55:43.067Z,7.78
2016-07-20T12:56:43.073Z,7.97
2016-07-20T12:57:43.318Z,7.68
2016-07-20T12:58:43.085Z,7.68
2016-07-20T12:59:43.090Z,7.48
2016-07-20T13:00:43.099Z,7.39